Time;durP1;ratioP1;P1;durP2;ratioP2;P2;SDS_P1;SDS_P2;PMS_P1;PMS_P2;Temp;Humidity;BMP_temperature;BMP_pressure;BME280_temperature;BME280_humidity;BME280_pressure;Samples;Min_cycle;Max_cycle;Signal;HPM_P1;HPM_P2
2023/03/05 00:01:28;;;;;;;49.33;34.90;;;2.20;99.90;;;3.00;82.44;98214.91;5235518;28;20278;-61
2023/03/05 00:04:03;;;;;;;49.97;33.57;;;2.20;99.90;;;2.96;82.53;98213.72;5238099;28;20305;-60
2023/03/05 00:06:37;;;;;;;49.07;32.70;;;2.20;99.90;;;2.97;82.14;98212.09;5232786;28;20200;-61
2023/03/05 00:09:10;;;;;;;50.30;33.87;;;2.20;99.90;;;3.00;82.04;98212.38;5235661;28;20304;-60
2023/03/05 00:11:44;;;;;;;43.70;32.23;;;2.20;99.90;;;3.05;81.88;98212.03;5238079;28;20240;-60
2023/03/05 00:14:17;;;;;;;50.33;33.70;;;2.20;99.90;;;3.09;82.52;98208.16;5235540;28;20229;-61
2023/03/05 00:16:50;;;;;;;61.57;38.97;;;2.20;99.90;;;3.12;82.64;98204.28;5237572;28;20220;-60
2023/03/05 00:19:23;;;;;;;57.13;36.77;;;2.20;99.90;;;3.08;81.66;98214.84;5238168;28;20237;-59
2023/03/05 00:21:57;;;;;;;51.53;33.43;;;2.20;99.90;;;3.05;82.55;98212.03;5232954;28;20206;-60
2023/03/05 00:24:30;;;;;;;97.80;44.40;;;2.20;99.90;;;3.04;82.67;98210.28;5237745;28;20374;-60
2023/03/05 00:27:04;;;;;;;115.13;49.10;;;2.20;99.90;;;3.02;83.18;98211.75;5233593;28;20259;-62
2023/03/05 00:29:37;;;;;;;88.27;40.13;;;2.20;99.90;;;3.05;83.37;98213.69;5238279;28;20241;-59
2023/03/05 00:32:10;;;;;;;187.17;64.70;;;2.20;99.90;;;3.05;82.83;98207.00;5235817;28;20282;-62
2023/03/05 00:34:43;;;;;;;79.33;41.40;;;2.20;99.90;;;3.08;82.42;98197.16;5236672;28;20193;-58
2023/03/05 00:37:18;;;;;;;50.90;33.77;;;2.20;99.90;;;3.08;82.64;98197.16;5236946;28;20336;-62
2023/03/05 00:39:51;;;;;;;49.30;36.77;;;2.20;99.90;;;3.06;82.80;98193.66;5234218;28;20213;-62
2023/03/05 00:42:24;;;;;;;49.97;32.70;;;2.10;99.90;;;3.05;83.18;98201.94;5233614;28;20238;-61
2023/03/05 00:44:57;;;;;;;45.57;30.90;;;2.10;99.90;;;3.05;83.09;98201.94;5242777;28;20218;-60
2023/03/05 00:47:30;;;;;;;49.83;32.20;;;2.10;99.90;;;3.06;83.07;98192.72;5235804;28;20636;-61
2023/03/05 00:50:05;;;;;;;45.43;31.57;;;2.10;99.90;;;3.06;83.37;98188.59;5227971;28;20232;-60
2023/03/05 00:52:39;;;;;;;44.83;31.43;;;2.10;99.90;;;3.04;83.46;98190.09;5233465;28;20230;-58
2023/03/05 00:55:12;;;;;;;43.87;30.87;;;2.10;99.90;;;3.04;82.47;98190.09;5237031;28;20977;-60
2023/03/05 00:57:46;;;;;;;45.30;31.17;;;2.10;99.90;;;2.98;83.19;98194.56;5236389;28;20307;-59
2023/03/05 01:00:20;;;;;;;41.97;31.40;;;2.10;99.90;;;2.93;83.95;98190.72;5235178;28;20306;-60
2023/03/05 01:02:53;;;;;;;45.87;30.80;;;2.10;99.90;;;2.92;84.28;98194.91;5233870;28;20291;-59
2023/03/05 01:05:26;;;;;;;47.90;32.17;;;2.10;99.90;;;2.94;84.80;98198.44;5236644;28;20207;-60
2023/03/05 01:08:01;;;;;;;42.10;29.90;;;2.10;99.90;;;2.94;84.81;98197.53;5231506;28;20808;-60
2023/03/05 01:10:34;;;;;;;50.03;31.97;;;2.10;99.90;;;2.95;84.77;98189.25;5232673;28;20238;-59
2023/03/05 01:13:07;;;;;;;44.73;31.23;;;2.10;99.90;;;2.97;85.09;98182.69;5234200;28;20206;-60
2023/03/05 01:15:40;;;;;;;44.47;30.33;;;2.10;99.90;;;2.95;85.81;98176.63;5238433;28;20200;-60
2023/03/05 01:18:13;;;;;;;45.77;32.27;;;2.10;99.90;;;2.90;85.80;98183.78;5229973;28;20342;-61
2023/03/05 01:20:46;;;;;;;45.30;31.23;;;2.00;99.90;;;2.79;86.80;98178.50;5238988;28;20234;-60
2023/03/05 01:23:21;;;;;;;44.90;30.67;;;2.00;99.90;;;2.73;88.23;98171.25;5238455;28;20732;-60
2023/03/05 01:25:55;;;;;;;44.83;31.73;;;1.90;99.90;;;2.67;88.64;98168.16;5240723;28;20207;-60
2023/03/05 01:28:28;;;;;;;48.67;31.63;;;1.90;99.90;;;2.61;89.45;98165.06;5237915;28;20318;-60
2023/03/05 01:31:02;;;;;;;46.57;31.33;;;1.90;99.90;;;2.58;89.92;98159.75;5242649;28;20233;-61
2023/03/05 01:33:35;;;;;;;47.57;31.97;;;1.90;99.90;;;2.56;90.46;98153.66;5237625;28;20213;-59
2023/03/05 01:36:12;;;;;;;52.20;32.80;;;1.90;99.90;;;2.58;91.19;98155.59;5236752;28;20578;-61
2023/03/05 01:38:47;;;;;;;46.40;31.43;;;1.90;99.90;;;2.57;91.77;98148.75;5229231;28;20317;-58
2023/03/05 01:41:20;;;;;;;46.67;32.47;;;1.80;99.90;;;2.56;93.19;98148.63;5234404;28;20660;-60
2023/03/05 01:43:54;;;;;;;49.23;31.97;;;1.90;99.90;;;2.57;92.68;98142.81;5235777;28;20207;-61
2023/03/05 01:46:36;;;;;;;47.37;31.93;;;1.80;99.90;;;2.52;92.00;98149.06;5233440;28;20210;-61
2023/03/05 01:49:17;;;;;;;48.03;32.37;;;1.80;99.90;;;2.52;92.11;98142.41;5228132;28;20301;-58
2023/03/05 01:52:01;;;;;;;47.80;31.20;;;1.80;99.90;;;2.57;92.32;98143.69;5237091;28;20230;-60
2023/03/05 01:54:39;;;;;;;48.20;31.87;;;1.80;99.90;;;2.57;93.03;98132.72;5234358;28;20207;-59
2023/03/05 01:57:17;;;;;;;43.47;30.37;;;1.80;99.90;;;2.59;93.96;98128.72;5236637;28;20248;-59
2023/03/05 01:59:54;;;;;;;51.63;31.77;;;1.90;99.90;;;2.61;94.17;98129.75;5235614;28;20251;-59
2023/03/05 02:02:28;;;;;;;51.67;32.53;;;1.90;99.90;;;2.63;93.67;98121.56;5241083;28;20694;-60
2023/03/05 02:05:05;;;;;;;46.17;30.30;;;1.90;99.90;;;2.66;94.38;98128.50;5232692;28;20294;-60
2023/03/05 02:07:41;;;;;;;47.20;30.30;;;1.90;99.90;;;2.66;93.69;98123.47;5237521;28;20793;-61
2023/03/05 02:10:19;;;;;;;42.70;30.73;;;1.80;99.90;;;2.65;94.29;98111.59;5239771;28;20211;-60
2023/03/05 02:12:56;;;;;;;46.53;29.70;;;1.90;99.90;;;2.71;93.56;98113.03;5235555;28;20767;-61
2023/03/05 02:15:30;;;;;;;47.10;31.47;;;1.90;99.90;;;2.73;93.98;98117.38;5248094;28;20693;-61
2023/03/05 02:18:03;;;;;;;45.10;31.63;;;1.90;99.90;;;2.68;94.28;98115.28;5236919;28;20342;-60
2023/03/05 02:20:46;;;;;;;51.00;32.40;;;1.90;99.90;;;2.74;94.18;98111.56;5243184;28;20320;-60
2023/03/05 02:23:21;;;;;;;49.27;32.47;;;1.90;99.90;;;2.79;93.78;98110.34;5237531;28;20295;-61
2023/03/05 02:25:55;;;;;;;46.43;31.87;;;1.90;99.90;;;2.71;93.86;98104.59;5256894;28;20214;-59
2023/03/05 02:28:32;;;;;;;47.77;32.10;;;1.90;99.90;;;2.66;94.59;98103.28;5238556;28;20224;-61
2023/03/05 02:31:10;;;;;;;46.30;32.53;;;1.90;99.90;;;2.70;93.88;98100.31;5234568;28;20196;-61
2023/03/05 02:33:43;;;;;;;49.47;34.13;;;1.90;99.90;;;2.73;94.91;98099.69;5239592;28;20199;-60
2023/03/05 02:36:16;;;;;;;52.67;33.27;;;1.90;99.90;;;2.80;94.81;98107.06;5236582;28;20632;-61
2023/03/05 02:38:52;;;;;;;53.30;33.80;;;1.90;99.90;;;2.76;95.04;98095.81;5228768;28;20241;-61
2023/03/05 02:41:25;;;;;;;49.70;33.20;;;1.90;99.90;;;2.78;94.19;98090.91;5237789;28;20658;-61
2023/03/05 02:43:58;;;;;;;47.97;33.43;;;1.90;99.90;;;2.79;95.23;98091.03;5239099;28;20203;-61
2023/03/05 02:46:31;;;;;;;51.50;32.43;;;1.90;99.90;;;2.80;94.31;98086.88;5237910;28;20300;-61
2023/03/05 02:49:04;;;;;;;48.53;32.70;;;1.90;99.90;;;2.78;94.62;98076.66;5241275;28;20753;-61
2023/03/05 02:51:37;;;;;;;49.20;33.80;;;1.90;99.90;;;2.81;93.83;98088.66;5232628;28;20227;-61
2023/03/05 02:54:12;;;;;;;46.83;32.10;;;1.90;99.90;;;2.76;93.50;98083.19;5233283;28;20299;-61
2023/03/05 02:56:45;;;;;;;51.90;33.80;;;1.90;99.90;;;2.73;94.38;98084.56;5237902;28;20202;-60
2023/03/05 02:59:18;;;;;;;51.13;33.17;;;1.80;99.90;;;2.69;94.70;98079.22;5244846;28;20229;-61
2023/03/05 03:01:51;;;;;;;51.93;34.23;;;1.80;99.90;;;2.67;94.65;98075.69;5238401;28;20228;-61
2023/03/05 03:04:24;;;;;;;45.97;31.20;;;1.80;99.90;;;2.67;94.54;98075.69;5239868;28;20210;-59
2023/03/05 03:06:57;;;;;;;47.60;32.30;;;1.80;99.90;;;2.67;94.92;98070.63;5234607;28;20235;-61
2023/03/05 03:09:34;;;;;;;45.77;31.03;;;1.80;99.90;;;2.68;94.63;98069.00;5241257;28;20585;-60
2023/03/05 03:12:07;;;;;;;53.50;32.93;;;1.80;99.90;;;2.61;94.29;98065.03;5241004;28;20768;-61
2023/03/05 03:14:42;;;;;;;51.90;31.80;;;1.80;99.90;;;2.61;94.96;98060.00;5234397;28;20284;-61
2023/03/05 03:17:17;;;;;;;49.07;33.47;;;1.80;99.90;;;2.59;94.76;98058.94;5237361;28;20318;-60
2023/03/05 03:19:51;;;;;;;44.20;32.60;;;1.80;99.90;;;2.58;95.22;98063.88;5242816;28;20584;-61
2023/03/05 03:22:24;;;;;;;50.57;32.93;;;1.70;99.90;;;2.60;95.58;98063.25;5239206;28;20197;-61
2023/03/05 03:24:58;;;;;;;49.80;32.13;;;1.80;99.90;;;2.60;96.16;98057.31;5239317;28;20298;-61
2023/03/05 03:27:31;;;;;;;49.07;31.37;;;1.80;99.90;;;2.64;95.72;98060.25;5232805;28;20241;-61
2023/03/05 03:30:06;;;;;;;47.93;32.00;;;1.80;99.90;;;2.69;95.39;98058.16;5238878;28;20568;-61
2023/03/05 03:32:39;;;;;;;44.67;30.47;;;1.80;99.90;;;2.65;94.98;98051.06;5239101;28;20386;-61
2023/03/05 03:35:13;;;;;;;42.00;28.87;;;1.80;99.90;;;2.69;94.89;98048.06;5236859;28;20206;-61
2023/03/05 03:37:46;;;;;;;40.50;28.03;;;1.80;99.90;;;2.67;95.79;98045.41;5232019;28;20227;-61
2023/03/05 03:40:21;;;;;;;43.23;27.83;;;1.70;99.90;;;2.56;95.05;98041.00;5231067;28;20593;-61
2023/03/05 03:42:54;;;;;;;42.27;27.33;;;1.70;99.90;;;2.53;95.15;98045.78;5241195;28;20287;-60
2023/03/05 03:45:27;;;;;;;46.43;28.50;;;1.70;99.90;;;2.54;95.29;98039.09;5237112;28;20206;-60
2023/03/05 03:48:00;;;;;;;41.40;28.63;;;1.70;99.90;;;2.55;95.75;98039.25;5234317;28;20331;-61
2023/03/05 03:50:33;;;;;;;42.03;28.77;;;1.80;99.90;;;2.61;95.93;98038.91;5232823;28;20638;-61
2023/03/05 03:53:06;;;;;;;41.43;28.10;;;1.80;99.90;;;2.64;95.93;98032.50;5236914;28;20598;-61
2023/03/05 03:55:42;;;;;;;52.33;30.60;;;1.90;99.90;;;2.69;96.11;98028.78;5240043;28;20203;-60
2023/03/05 03:58:15;;;;;;;47.00;30.50;;;1.90;99.90;;;2.66;96.58;98023.44;5235140;28;20229;-60
2023/03/05 04:00:48;;;;;;;48.53;31.53;;;1.90;99.90;;;2.60;95.89;98029.56;5238480;28;20326;-61
2023/03/05 04:03:22;;;;;;;49.53;31.13;;;1.80;99.90;;;2.61;96.21;98024.66;5236618;28;20201;-61
2023/03/05 04:05:55;;;;;;;47.90;30.67;;;1.90;99.90;;;2.60;95.35;98017.81;5242378;28;20249;-61
2023/03/05 04:08:28;;;;;;;44.83;29.87;;;1.80;99.90;;;2.65;95.38;98019.13;5237969;28;20681;-60
2023/03/05 04:11:02;;;;;;;46.27;30.50;;;1.90;99.90;;;2.64;95.63;98014.84;5234513;28;20801;-62
2023/03/05 04:13:35;;;;;;;45.50;29.50;;;1.80;99.90;;;2.67;95.32;98015.13;5240273;28;20219;-63
2023/03/05 04:16:08;;;;;;;46.63;29.67;;;1.90;99.90;;;2.68;95.33;98009.31;5232755;28;20287;-62
2023/03/05 04:18:42;;;;;;;49.93;30.43;;;1.90;99.90;;;2.69;95.58;98011.09;5241676;28;20262;-62
2023/03/05 04:21:15;;;;;;;45.07;29.20;;;1.90;99.90;;;2.73;95.46;98011.38;5239343;28;20205;-61
2023/03/05 04:23:49;;;;;;;46.30;29.77;;;1.90;99.90;;;2.74;94.85;98006.44;5231533;28;20305;-61
2023/03/05 04:26:23;;;;;;;48.93;29.70;;;1.90;99.90;;;2.78;95.70;98012.69;5233715;28;20204;-61
2023/03/05 04:28:56;;;;;;;51.33;31.40;;;2.00;99.90;;;2.79;95.00;98005.22;5237488;28;20266;-61
2023/03/05 04:31:29;;;;;;;51.40;31.53;;;2.00;99.90;;;2.83;94.97;98006.38;5239898;28;20203;-61
2023/03/05 04:34:02;;;;;;;49.20;30.83;;;2.00;99.90;;;2.87;94.70;98003.41;5238586;28;20322;-61
2023/03/05 04:36:36;;;;;;;48.47;30.83;;;2.00;99.90;;;2.87;95.00;97994.19;5238284;28;20199;-59
2023/03/05 04:39:09;;;;;;;47.83;30.47;;;1.90;99.90;;;2.83;94.49;97997.19;5236944;28;20672;-60
2023/03/05 04:41:43;;;;;;;49.17;32.53;;;1.90;99.90;;;2.78;95.40;97988.31;5237143;28;20208;-60
2023/03/05 04:44:18;;;;;;;48.63;30.90;;;1.90;99.90;;;2.78;95.39;97998.41;5235190;28;20697;-61
2023/03/05 04:46:51;;;;;;;50.70;31.63;;;1.90;99.90;;;2.73;96.00;97997.13;5241403;28;20772;-60
2023/03/05 04:49:24;;;;;;;50.63;31.17;;;1.90;99.90;;;2.81;95.28;97997.81;5239888;28;20222;-61
2023/03/05 04:51:58;;;;;;;48.67;31.37;;;1.90;99.90;;;2.77;95.83;97995.75;5232088;28;20207;-60
2023/03/05 04:54:31;;;;;;;48.70;31.23;;;1.90;99.90;;;2.83;96.03;98002.25;5228343;28;20711;-59
2023/03/05 04:57:06;;;;;;;47.03;30.43;;;1.90;99.90;;;2.82;95.50;97992.88;5241804;28;20290;-62
2023/03/05 04:59:39;;;;;;;49.43;30.80;;;1.90;99.90;;;2.81;95.42;97996.16;5243501;28;20206;-61
2023/03/05 05:02:12;;;;;;;44.83;30.77;;;1.90;99.90;;;2.84;95.38;97998.97;5230974;28;20208;-61
2023/03/05 05:04:45;;;;;;;51.83;32.43;;;1.90;99.90;;;2.79;95.48;97984.16;5238438;28;20293;-60
2023/03/05 05:07:18;;;;;;;47.43;32.03;;;1.80;99.90;;;2.74;95.64;97990.44;5231404;28;20248;-61
2023/03/05 05:09:51;;;;;;;51.77;32.60;;;1.90;99.90;;;2.70;95.97;97989.28;5241146;28;20212;-61
2023/03/05 05:12:28;;;;;;;50.93;32.10;;;1.80;99.90;;;2.71;95.58;97991.91;5243002;28;20299;-62
2023/03/05 05:15:02;;;;;;;48.87;32.30;;;1.90;99.90;;;2.69;96.85;97988.41;5229717;28;20337;-62
2023/03/05 05:17:35;;;;;;;48.93;31.43;;;1.80;99.90;;;2.71;96.12;97988.50;5238077;28;20316;-62
2023/03/05 05:20:13;;;;;;;48.03;31.83;;;1.90;99.90;;;2.71;96.25;97981.81;5238345;28;20638;-62
2023/03/05 05:22:46;;;;;;;49.53;31.03;;;1.90;99.90;;;2.71;97.26;97986.88;5234053;28;20203;-61
2023/03/05 05:25:19;;;;;;;48.60;31.47;;;1.90;99.90;;;2.70;97.53;97984.22;5234375;28;20208;-61
2023/03/05 05:27:53;;;;;;;49.83;31.17;;;1.90;99.90;;;2.76;96.43;97979.72;5236713;28;20223;-61
2023/03/05 05:30:27;;;;;;;47.60;31.80;;;1.90;99.90;;;2.82;96.27;97984.44;5235692;28;20205;-61
2023/03/05 05:33:00;;;;;;;45.67;30.40;;;1.90;99.90;;;2.81;95.58;97981.03;5238513;28;20351;-61
2023/03/05 05:35:33;;;;;;;46.43;30.07;;;1.90;99.90;;;2.81;95.48;97980.16;5239523;28;20293;-61
2023/03/05 05:38:06;;;;;;;47.10;30.20;;;1.90;99.90;;;2.77;95.95;97978.06;5234448;28;20228;-62
2023/03/05 05:40:39;;;;;;;44.87;30.80;;;1.90;99.90;;;2.82;95.94;97986.94;5228285;28;20207;-62
2023/03/05 05:43:14;;;;;;;45.93;30.30;;;1.90;99.90;;;2.85;95.52;97982.16;5228851;28;20224;-61
2023/03/05 05:45:47;;;;;;;47.03;31.13;;;1.90;99.90;;;2.81;95.62;97988.59;5238859;28;20221;-61
2023/03/05 05:48:20;;;;;;;49.57;31.47;;;1.90;99.90;;;2.83;96.49;97981.13;5240106;28;20227;-61
2023/03/05 05:50:53;;;;;;;47.40;30.77;;;1.90;99.90;;;2.85;95.66;97984.69;5244007;28;20284;-61
2023/03/05 05:53:26;;;;;;;49.87;30.07;;;1.90;99.90;;;2.81;95.69;97983.53;5233154;28;20322;-61
2023/03/05 05:56:00;;;;;;;46.37;30.53;;;1.90;99.90;;;2.79;96.47;97979.09;5240807;28;20289;-60
2023/03/05 05:58:34;;;;;;;47.73;30.27;;;1.90;99.90;;;2.79;96.43;97980.00;5242584;28;20232;-61
2023/03/05 06:01:16;;;;;;;49.23;31.53;;;1.90;99.90;;;2.73;97.22;97987.03;5239667;28;20294;-62
2023/03/05 06:03:50;;;;;;;48.53;30.80;;;1.90;99.90;;;2.82;96.58;97985.31;5236602;28;20190;-62
2023/03/05 06:06:24;;;;;;;50.17;31.50;;;1.90;99.90;;;2.81;95.64;97978.50;5237281;28;20807;-59
2023/03/05 06:08:57;;;;;;;48.30;30.17;;;1.90;99.90;;;2.79;96.58;97985.03;5233804;28;20227;-61
2023/03/05 06:11:31;;;;;;;50.07;30.27;;;1.90;99.90;;;2.82;96.14;97981.91;5236163;28;20209;-61
2023/03/05 06:14:06;;;;;;;44.43;29.57;;;1.90;99.90;;;2.76;96.25;97974.69;5236695;28;20676;-61
2023/03/05 06:16:39;;;;;;;50.33;31.33;;;1.90;99.90;;;2.81;96.77;97975.09;5242226;28;20204;-60
2023/03/05 06:19:14;;;;;;;48.40;31.30;;;1.90;99.90;;;2.82;97.41;97979.38;5242925;28;20642;-62
2023/03/05 06:21:47;;;;;;;48.30;30.73;;;2.00;99.90;;;2.85;97.26;97982.16;5244898;28;20203;-62
2023/03/05 06:24:21;;;;;;;51.17;31.93;;;2.00;99.90;;;2.83;96.50;97981.13;5238405;28;20656;-60
2023/03/05 06:26:54;;;;;;;46.80;31.73;;;2.00;99.90;;;2.81;96.62;97987.72;5240303;28;20204;-59
2023/03/05 06:29:28;;;;;;;48.00;29.67;;;2.00;99.90;;;2.82;96.63;97980.25;5238497;28;20306;-60
2023/03/05 06:32:01;;;;;;;43.73;28.40;;;2.00;99.90;;;2.84;97.01;97977.88;5232515;28;20196;-61
2023/03/05 06:34:34;;;;;;;47.30;29.77;;;2.00;99.90;;;2.91;96.10;97980.19;5239996;28;20278;-62
2023/03/05 06:37:07;;;;;;;43.37;29.30;;;2.00;99.90;;;2.92;95.37;97985.38;5236482;28;20248;-61
2023/03/05 06:39:40;;;;;;;46.17;30.93;;;2.00;99.90;;;2.97;95.43;97975.66;5228959;28;20296;-61
2023/03/05 06:42:16;;;;;;;51.17;30.87;;;2.00;99.90;;;2.97;95.98;97979.84;5239506;28;20215;-60
2023/03/05 06:44:50;;;;;;;46.93;29.77;;;2.10;99.90;;;2.99;95.63;97976.69;5240343;28;20253;-62
2023/03/05 06:47:23;;;;;;;53.37;31.80;;;2.10;99.90;;;3.02;95.62;97974.44;5237449;28;20312;-61
2023/03/05 06:49:56;;;;;;;45.10;30.50;;;2.10;99.90;;;3.01;95.89;97974.31;5240005;28;20210;-62
2023/03/05 06:52:30;;;;;;;42.60;29.80;;;2.10;99.90;;;3.05;95.65;97972.19;5232834;28;20232;-60
2023/03/05 06:55:04;;;;;;;46.73;30.37;;;2.10;99.90;;;3.04;96.20;97970.41;5235446;28;20696;-62
2023/03/05 06:57:37;;;;;;;46.30;30.20;;;2.10;99.90;;;2.99;95.88;97971.66;5242070;28;20227;-63
2023/03/05 07:00:14;;;;;;;44.73;30.00;;;2.10;99.90;;;2.99;95.56;97964.06;5233422;28;20234;-63
2023/03/05 07:02:47;;;;;;;46.40;29.27;;;2.10;99.90;;;3.00;95.66;97965.84;5233638;28;20204;-63
2023/03/05 07:05:20;;;;;;;45.90;29.83;;;2.20;99.90;;;3.03;96.82;97971.16;5234923;28;20194;-62
2023/03/05 07:07:53;;;;;;;50.47;30.13;;;2.20;99.90;;;3.08;95.89;97964.88;5237379;28;20587;-62
2023/03/05 07:10:26;;;;;;;43.73;28.80;;;2.20;99.90;;;3.11;95.13;97964.25;5240254;28;20217;-60
2023/03/05 07:12:59;;;;;;;48.07;30.33;;;2.30;99.90;;;3.10;94.65;97977.66;5233401;28;20205;-59
2023/03/05 07:15:34;;;;;;;49.17;30.17;;;2.20;99.90;;;3.15;94.75;97972.25;5225821;28;20742;-62
2023/03/05 07:18:07;;;;;;;51.47;31.30;;;2.20;99.90;;;3.08;94.21;97964.88;5229602;28;20653;-62
2023/03/05 07:20:40;;;;;;;50.97;32.60;;;2.20;99.90;;;3.15;94.15;97961.25;5240959;28;20589;-60
2023/03/05 07:23:14;;;;;;;43.53;29.60;;;2.30;99.90;;;3.15;94.61;97967.19;5236687;28;20575;-62
2023/03/05 07:25:47;;;;;;;51.67;32.47;;;2.30;99.90;;;3.16;95.12;97963.91;5231246;28;20192;-63
2023/03/05 07:28:20;;;;;;;52.03;32.50;;;2.30;99.90;;;3.21;94.53;97965.97;5229211;28;20229;-59
2023/03/05 07:30:59;;;;;;;53.00;31.77;;;2.30;99.90;;;3.22;94.15;97952.56;5232976;28;20600;-62
2023/03/05 07:33:34;;;;;;;48.40;32.47;;;2.30;99.90;;;3.24;94.83;97951.06;5239240;28;20196;-60
2023/03/05 07:36:08;;;;;;;44.97;30.63;;;2.40;99.90;;;3.30;93.78;97949.06;5242726;28;20220;-62
2023/03/05 07:38:41;;;;;;;47.60;31.03;;;2.40;99.90;;;3.29;95.20;97942.22;5236615;28;20695;-61
2023/03/05 07:41:19;;;;;;;48.63;30.73;;;2.40;99.90;;;3.35;95.27;97950.38;5231999;28;20208;-61
2023/03/05 07:43:54;;;;;;;53.03;32.17;;;2.50;99.90;;;3.36;94.86;97949.59;5233119;28;20242;-59
2023/03/05 07:46:32;;;;;;;49.13;31.17;;;2.50;99.90;;;3.36;93.64;97957.19;5242789;28;20282;-61
2023/03/05 07:49:05;;;;;;;51.13;31.30;;;2.50;99.90;;;3.38;93.90;97953.16;5234470;28;20268;-61
2023/03/05 07:51:40;;;;;;;54.33;32.07;;;2.50;99.90;;;3.38;94.23;97950.63;5233386;28;20292;-61
2023/03/05 07:54:13;;;;;;;53.50;33.43;;;2.50;99.90;;;3.41;93.78;97950.00;5231926;28;20192;-59
2023/03/05 07:56:47;;;;;;;50.27;33.00;;;2.50;99.90;;;3.42;93.87;97944.19;5241456;28;20722;-61
2023/03/05 07:59:20;;;;;;;50.60;33.50;;;2.60;99.90;;;3.42;93.80;97950.13;5244013;28;20308;-63
2023/03/05 08:01:54;;;;;;;52.67;32.37;;;2.60;99.90;;;3.47;93.74;97945.47;5235772;28;20212;-61
2023/03/05 08:04:30;;;;;;;50.50;33.40;;;2.60;99.90;;;3.54;92.80;97953.69;5241898;28;20199;-59
2023/03/05 08:07:03;;;;;;;54.53;33.23;;;2.70;99.90;;;3.59;92.11;97939.81;5233169;28;20257;-61
2023/03/05 08:09:36;;;;;;;52.40;33.33;;;2.70;99.90;;;3.64;92.05;97947.78;5234619;28;20291;-61
2023/03/05 08:12:10;;;;;;;51.00;32.07;;;2.80;99.90;;;3.67;92.81;97944.63;5232385;28;20204;-61
2023/03/05 08:14:43;;;;;;;50.13;32.57;;;2.80;99.90;;;3.71;92.04;97942.47;5240352;28;20256;-61
2023/03/05 08:17:18;;;;;;;53.73;32.27;;;2.80;99.90;;;3.78;91.76;97944.78;5234335;28;20640;-61
2023/03/05 08:19:52;;;;;;;50.13;30.93;;;2.90;99.90;;;3.76;92.55;97941.22;5239096;28;20206;-61
2023/03/05 08:22:25;;;;;;;54.47;34.50;;;3.00;99.90;;;3.88;92.10;97936.31;5235159;28;20293;-61
2023/03/05 08:24:58;;;;;;;55.10;34.03;;;3.00;99.90;;;3.91;91.64;97944.16;5237369;28;20662;-63
2023/03/05 08:27:32;;;;;;;51.10;32.93;;;3.00;99.90;;;3.96;91.97;97936.97;5231997;28;20306;-61
2023/03/05 08:30:06;;;;;;;54.33;34.07;;;3.00;99.90;;;3.93;91.52;97939.25;5238123;28;20197;-61
2023/03/05 08:32:41;;;;;;;49.03;32.53;;;3.00;99.90;;;3.96;92.11;97929.38;5236533;28;20197;-61
2023/03/05 08:35:14;;;;;;;50.77;32.90;;;3.00;99.90;;;3.89;91.31;97933.03;5230051;28;20221;-60
2023/03/05 08:37:47;;;;;;;55.03;34.90;;;3.00;99.90;;;3.87;91.80;97934.56;5233903;28;20234;-63
2023/03/05 08:40:20;;;;;;;49.37;32.23;;;2.90;99.90;;;3.89;91.36;97934.66;5235307;28;20204;-62
2023/03/05 08:42:53;;;;;;;52.00;31.77;;;3.00;99.90;;;3.90;92.48;97932.28;5230065;28;21468;-62
2023/03/05 08:45:27;;;;;;;61.83;39.20;;;3.00;99.90;;;4.02;91.14;97934.94;5235473;28;20247;-61
2023/03/05 08:48:02;;;;;;;55.33;36.30;;;3.10;99.90;;;4.02;90.78;97930.78;5240840;28;20216;-61
2023/03/05 08:50:36;;;;;;;55.57;32.77;;;3.10;99.90;;;4.06;90.92;97926.84;5231668;28;20208;-61
2023/03/05 08:53:11;;;;;;;48.43;31.83;;;3.10;99.90;;;4.13;90.83;97918.13;5235828;28;20191;-61
2023/03/05 08:55:44;;;;;;;51.40;32.03;;;3.20;99.90;;;4.13;90.76;97924.06;5233645;28;20231;-62
2023/03/05 08:58:17;;;;;;;45.13;30.67;;;3.20;99.90;;;4.16;90.27;97918.41;5232734;28;20790;-62
2023/03/05 09:00:51;;;;;;;45.80;29.37;;;3.20;99.90;;;4.21;90.02;97924.72;5233867;28;20209;-62
2023/03/05 09:03:25;;;;;;;47.60;31.10;;;3.20;99.90;;;4.20;90.74;97925.47;5230761;28;20239;-62
2023/03/05 09:06:00;;;;;;;42.83;28.80;;;3.30;99.90;;;4.33;90.49;97927.38;5237423;28;20196;-63
2023/03/05 09:08:34;;;;;;;43.90;29.10;;;3.40;99.90;;;4.37;90.54;97919.25;5235664;28;20642;-62
2023/03/05 09:11:09;;;;;;;45.87;28.80;;;3.40;99.90;;;4.37;90.48;97917.59;5233736;28;20194;-61
2023/03/05 09:13:43;;;;;;;44.90;29.40;;;3.50;99.90;;;4.39;90.01;97915.22;5232928;28;20633;-62
2023/03/05 09:16:19;;;;;;;41.33;28.17;;;3.50;99.90;;;4.53;89.72;97924.81;5232034;28;20236;-61
2023/03/05 09:18:53;;;;;;;44.77;28.17;;;3.60;99.90;;;4.53;89.49;97921.41;5235205;28;20682;-62
2023/03/05 09:21:26;;;;;;;46.27;27.40;;;3.60;99.90;;;4.58;88.29;97915.03;5237731;28;20230;-57
2023/03/05 09:24:00;;;;;;;44.70;27.90;;;3.60;99.90;;;4.56;88.97;97914.06;5239889;28;20600;-58
2023/03/05 09:26:33;;;;;;;45.70;29.10;;;3.60;99.90;;;4.60;88.59;97919.47;5240886;28;20675;-60
2023/03/05 09:29:07;;;;;;;42.70;27.50;;;3.60;99.90;;;4.61;89.34;97915.31;5238557;28;20224;-61
2023/03/05 09:31:42;;;;;;;40.17;27.83;;;3.60;99.90;;;4.66;88.69;97903.91;5239208;28;20204;-61
2023/03/05 09:34:16;;;;;;;37.83;25.43;;;3.60;99.90;;;4.81;87.68;97900.06;5238895;28;20433;-58
2023/03/05 09:36:50;;;;;;;38.07;25.13;;;3.70;99.90;;;4.78;87.64;97894.78;5239419;28;20221;-58
2023/03/05 09:39:23;;;;;;;39.90;26.40;;;3.70;99.90;;;4.82;87.10;97896.78;5234058;28;20236;-58
2023/03/05 09:42:24;;;;;;;39.73;25.73;;;3.80;99.90;;;4.79;87.44;97896.53;5237476;28;20203;-60
2023/03/05 09:45:12;;;;;;;39.00;26.33;;;3.80;99.90;;;4.74;87.85;97888.56;5241735;28;20204;-58
2023/03/05 09:47:53;;;;;;;43.80;26.50;;;3.80;99.90;;;4.81;87.59;97889.03;5238288;28;20228;-58
2023/03/05 09:50:42;;;;;;;41.13;26.43;;;3.80;99.90;;;4.82;87.66;97891.72;5239033;28;20208;-57
2023/03/05 09:53:25;;;;;;;40.80;26.90;;;3.90;99.90;;;4.82;87.41;97891.72;5232785;28;20235;-57
2023/03/05 09:56:04;;;;;;;39.67;26.17;;;3.80;99.90;;;4.86;87.17;97892.81;5237437;28;20220;-59
2023/03/05 09:58:40;;;;;;;34.87;23.93;;;3.90;99.90;;;4.91;86.42;97886.47;5240626;28;20699;-57
2023/03/05 10:01:17;;;;;;;39.47;24.47;;;3.90;99.90;;;4.87;86.34;97885.38;5235841;28;20204;-57
2023/03/05 10:03:56;;;;;;;38.07;23.73;;;3.90;99.90;;;4.94;86.21;97882.53;5232313;28;20211;-55
2023/03/05 10:06:35;;;;;;;38.93;24.23;;;4.00;99.90;;;4.93;86.03;97879.91;5235600;28;20330;-61
2023/03/05 10:09:19;;;;;;;35.13;22.70;;;4.00;99.90;;;4.95;85.63;97883.41;5235530;28;20284;-60
2023/03/05 10:11:57;;;;;;;36.77;22.57;;;4.00;99.90;;;4.97;85.02;97879.38;5232166;28;20201;-58
2023/03/05 10:14:33;;;;;;;35.40;22.77;;;4.00;99.90;;;4.96;84.80;97870.00;5231528;28;20214;-60
2023/03/05 10:17:51;;;;;;;33.80;23.50;;;4.00;99.90;;;5.04;84.61;97868.97;5243141;28;20773;-60
2023/03/05 10:20:56;;;;;;;37.20;22.87;;;4.10;99.90;;;4.93;84.41;97863.06;5235564;28;20230;-57
2023/03/05 10:23:52;;;;;;;38.20;25.10;;;4.00;99.90;;;4.92;84.98;97866.34;5235335;28;20302;-60
2023/03/05 10:26:45;;;;;;;37.23;23.50;;;4.10;99.90;;;5.04;84.26;97858.84;5239489;28;20555;-58
2023/03/05 10:29:43;;;;;;;33.83;22.10;;;4.10;99.90;;;4.97;84.48;97862.50;5234659;28;20245;-58
2023/03/05 10:32:29;;;;;;;32.27;22.43;;;4.10;99.90;;;4.97;84.32;97859.97;5233024;28;20299;-57
2023/03/05 10:35:21;;;;;;;32.77;22.60;;;4.10;99.90;;;5.00;83.42;97859.34;5231819;28;20658;-62
2023/03/05 10:38:30;;;;;;;34.10;22.33;;;4.10;99.90;;;5.02;83.94;97854.41;5234188;28;20712;-58
2023/03/05 10:41:12;;;;;;;32.30;21.43;;;4.00;99.90;;;5.01;84.21;97847.56;5229758;28;20430;-58
2023/03/05 10:43:53;;;;;;;32.07;22.40;;;4.10;99.90;;;5.01;84.75;97848.47;5237356;28;20211;-60
2023/03/05 10:46:34;;;;;;;34.20;22.27;;;4.10;99.90;;;5.00;83.76;97845.78;5233818;28;20587;-59
2023/03/05 10:49:19;;;;;;;31.13;22.10;;;4.10;99.90;;;5.04;83.94;97837.69;5231306;28;20304;-58
2023/03/05 10:51:56;;;;;;;33.30;22.80;;;4.10;99.90;;;5.18;83.95;97837.13;5240779;28;20669;-58
2023/03/05 10:54:31;;;;;;;31.40;20.83;;;4.20;99.90;;;5.41;82.21;97834.69;5235430;28;20296;-58